Time;durP1;ratioP1;P1;durP2;ratioP2;P2;SDS_P1;SDS_P2;PMS_P1;PMS_P2;Temp;Humidity;BMP_temperature;BMP_pressure;BME280_temperature;BME280_humidity;BME280_pressure;Samples;Min_cycle;Max_cycle;Signal;HPM_P1;HPM_P2
2021/06/08 00:01:55;;;;;;;33.15;23.05;;;17.30;96.60;;;;;;5092066;28;20044;-68
2021/06/08 00:04:21;;;;;;;34.47;22.35;;;17.30;96.60;;;;;;5090946;28;20454;-68
2021/06/08 00:06:48;;;;;;;28.23;21.58;;;17.30;96.50;;;;;;5092330;28;20024;-67
2021/06/08 00:09:14;;;;;;;31.60;22.67;;;17.30;96.50;;;;;;5091924;28;20065;-68
2021/06/08 00:11:40;;;;;;;32.95;22.08;;;17.30;96.50;;;;;;5091280;28;20109;-68
2021/06/08 00:14:06;;;;;;;29.85;21.35;;;17.20;96.40;;;;;;5091411;28;20095;-68
2021/06/08 00:16:31;;;;;;;30.77;21.65;;;17.20;96.40;;;;;;5089778;28;20053;-68
2021/06/08 00:18:57;;;;;;;26.83;19.75;;;17.10;96.40;;;;;;5091247;28;20065;-67
2021/06/08 00:21:22;;;;;;;30.40;22.35;;;17.10;96.40;;;;;;5091547;28;20115;-68
2021/06/08 00:23:48;;;;;;;30.13;21.67;;;17.10;96.40;;;;;;5088077;28;20032;-67
2021/06/08 00:26:14;;;;;;;33.65;21.52;;;17.10;96.40;;;;;;5087654;28;20028;-68
2021/06/08 00:28:39;;;;;;;29.85;20.77;;;17.10;96.40;;;;;;5091955;28;20024;-69
2021/06/08 00:31:05;;;;;;;24.67;18.60;;;17.00;96.40;;;;;;5092074;28;20055;-66
2021/06/08 00:33:30;;;;;;;24.88;19.15;;;17.00;96.30;;;;;;5089581;28;20085;-69
2021/06/08 00:35:56;;;;;;;26.42;18.50;;;16.90;96.30;;;;;;5091080;28;20028;-67
2021/06/08 00:38:22;;;;;;;25.67;18.60;;;16.90;96.30;;;;;;5091637;28;20032;-67
2021/06/08 00:40:48;;;;;;;23.33;18.52;;;16.90;96.30;;;;;;5090575;28;20074;-68
2021/06/08 00:43:13;;;;;;;26.48;18.58;;;16.90;96.40;;;;;;5091803;28;20044;-68
2021/06/08 00:45:40;;;;;;;23.30;16.95;;;16.80;96.30;;;;;;5090748;28;20100;-67
2021/06/08 00:48:06;;;;;;;26.00;18.38;;;16.80;96.30;;;;;;5091406;28;20032;-66
2021/06/08 00:50:33;;;;;;;26.75;19.70;;;16.80;96.30;;;;;;5091731;28;20027;-68
2021/06/08 00:52:58;;;;;;;26.70;19.42;;;16.70;96.30;;;;;;5090304;28;20024;-67
2021/06/08 00:55:24;;;;;;;26.75;19.67;;;16.70;96.50;;;;;;5088275;28;20104;-68
2021/06/08 00:57:50;;;;;;;26.90;20.50;;;16.70;96.50;;;;;;5088657;28;20032;-67
2021/06/08 01:00:17;;;;;;;31.92;21.58;;;16.70;96.60;;;;;;5086535;28;20016;-67
2021/06/08 01:02:43;;;;;;;28.77;21.30;;;16.70;96.60;;;;;;5090602;28;20102;-67
2021/06/08 01:05:09;;;;;;;31.73;21.35;;;16.80;96.70;;;;;;5090126;28;20111;-69
2021/06/08 01:07:36;;;;;;;28.30;20.90;;;16.80;96.70;;;;;;5090563;28;20055;-66
2021/06/08 01:10:07;;;;;;;29.60;22.13;;;16.80;96.70;;;;;;5091386;28;20360;-67
2021/06/08 01:12:32;;;;;;;30.25;22.33;;;16.80;96.70;;;;;;5089556;28;20098;-66
2021/06/08 01:14:58;;;;;;;31.38;22.88;;;16.80;96.70;;;;;;5089150;28;20032;-67
2021/06/08 01:17:23;;;;;;;28.85;21.90;;;16.80;96.70;;;;;;5087030;28;20388;-66
2021/06/08 01:19:53;;;;;;;28.45;22.15;;;16.80;96.70;;;;;;5077197;28;20047;-66
2021/06/08 01:22:19;;;;;;;33.72;23.38;;;16.80;96.70;;;;;;5090824;28;20020;-68
2021/06/08 01:24:45;;;;;;;33.00;23.60;;;16.80;96.70;;;;;;5089720;28;20714;-67
2021/06/08 01:27:11;;;;;;;31.77;22.25;;;16.80;96.80;;;;;;5089451;28;20028;-67
2021/06/08 01:29:38;;;;;;;34.10;22.95;;;16.80;96.80;;;;;;5089289;28;20480;-66
2021/06/08 01:32:05;;;;;;;34.50;23.35;;;16.80;96.80;;;;;;5090132;28;20032;-67
2021/06/08 01:34:32;;;;;;;33.90;24.35;;;16.80;96.80;;;;;;5089110;28;20111;-66
2021/06/08 01:36:58;;;;;;;31.17;23.35;;;16.80;96.80;;;;;;5089971;28;20029;-67
2021/06/08 01:39:24;;;;;;;31.60;23.17;;;16.90;96.80;;;;;;5089515;28;20462;-67
2021/06/08 01:41:50;;;;;;;33.00;22.50;;;16.80;96.80;;;;;;5088448;28;20023;-66
2021/06/08 01:44:16;;;;;;;31.77;23.27;;;16.90;96.90;;;;;;5088565;28;20016;-67
2021/06/08 01:46:42;;;;;;;30.70;23.25;;;16.90;96.90;;;;;;5090079;28;20062;-67
2021/06/08 01:49:08;;;;;;;36.47;24.50;;;16.90;96.90;;;;;;5090233;28;20357;-68
2021/06/08 01:52:05;;;;;;;37.92;25.23;;;16.90;96.90;;;;;;5081299;28;20028;-67
2021/06/08 01:54:36;;;;;;;34.22;23.35;;;16.90;96.90;;;;;;5089332;28;20032;-66
2021/06/08 01:57:22;;;;;;;36.25;23.02;;;16.90;96.90;;;;;;5089514;28;20415;-66
2021/06/08 01:59:57;;;;;;;35.83;24.10;;;16.80;96.90;;;;;;5090156;28;20095;-67
2021/06/08 02:02:35;;;;;;;34.65;24.95;;;16.90;97.00;;;;;;5089765;28;20020;-68
2021/06/08 02:05:04;;;;;;;31.67;22.88;;;16.90;97.00;;;;;;5088882;28;20028;-67
2021/06/08 02:07:46;;;;;;;31.70;20.95;;;16.90;96.90;;;;;;5090030;28;20024;-67
2021/06/08 02:10:53;;;;;;;35.00;22.08;;;16.80;97.00;;;;;;5089805;28;20494;-70
2021/06/08 02:13:57;;;;;;;31.38;22.05;;;16.80;97.00;;;;;;5069028;28;20589;-68
2021/06/08 02:16:41;;;;;;;32.47;23.67;;;16.80;97.00;;;;;;5082406;28;20028;-67
2021/06/08 02:19:07;;;;;;;35.08;23.27;;;16.80;97.10;;;;;;5089589;28;20103;-68
2021/06/08 02:21:39;;;;;;;29.98;22.48;;;16.80;97.10;;;;;;5089821;28;20107;-67
2021/06/08 02:24:06;;;;;;;37.33;24.70;;;16.80;97.10;;;;;;5088726;28;20107;-67
2021/06/08 02:26:35;;;;;;;31.25;22.17;;;16.80;97.10;;;;;;5088212;28;20035;-66
2021/06/08 02:29:03;;;;;;;30.77;22.77;;;16.90;97.10;;;;;;5089874;28;20522;-67
2021/06/08 02:31:30;;;;;;;34.53;23.20;;;16.90;97.10;;;;;;5087951;28;20040;-66
2021/06/08 02:34:03;;;;;;;37.45;22.90;;;16.90;97.10;;;;;;5087556;28;20054;-67
2021/06/08 02:36:29;;;;;;;31.83;23.25;;;16.90;97.10;;;;;;5079502;28;20127;-67
2021/06/08 02:38:56;;;;;;;35.47;23.73;;;16.90;97.10;;;;;;5089338;28;20162;-66
2021/06/08 02:41:23;;;;;;;31.42;23.50;;;16.90;97.10;;;;;;5087895;28;20024;-67
2021/06/08 02:43:50;;;;;;;35.28;23.73;;;16.90;97.10;;;;;;5087643;28;20077;-68
2021/06/08 02:46:17;;;;;;;30.23;22.55;;;16.90;97.10;;;;;;5088805;28;20035;-68
2021/06/08 02:48:44;;;;;;;31.13;23.65;;;16.80;97.10;;;;;;5088911;28;20059;-68
2021/06/08 02:51:10;;;;;;;34.95;24.70;;;16.80;97.10;;;;;;5090012;28;20099;-69
2021/06/08 02:53:36;;;;;;;32.13;21.70;;;16.80;97.10;;;;;;5090132;28;20054;-69
2021/06/08 02:56:05;;;;;;;32.92;23.83;;;16.80;97.00;;;;;;5090161;28;20099;-68
2021/06/08 02:58:32;;;;;;;34.38;25.00;;;16.80;97.10;;;;;;5092080;28;20043;-67
2021/06/08 03:00:58;;;;;;;30.35;22.63;;;16.80;97.10;;;;;;5093092;28;20111;-67
2021/06/08 03:03:27;;;;;;;31.05;22.25;;;16.80;97.10;;;;;;5092463;28;20158;-67
2021/06/08 03:06:03;;;;;;;30.63;21.92;;;16.80;97.10;;;;;;5092315;28;20027;-68
2021/06/08 03:08:49;;;;;;;32.22;24.10;;;16.80;97.10;;;;;;5093593;28;20024;-67
2021/06/08 03:11:22;;;;;;;34.83;23.80;;;16.80;97.10;;;;;;5088487;28;20024;-67
2021/06/08 03:13:50;;;;;;;32.70;22.67;;;16.80;97.10;;;;;;5093596;28;20028;-66
2021/06/08 03:16:17;;;;;;;35.63;23.70;;;16.80;97.10;;;;;;5092508;28;20028;-67
2021/06/08 03:18:48;;;;;;;32.33;23.15;;;16.80;97.10;;;;;;5092664;28;20045;-67
2021/06/08 03:21:31;;;;;;;33.53;22.85;;;16.80;97.20;;;;;;5093920;28;20066;-67
2021/06/08 03:23:58;;;;;;;39.92;24.92;;;16.80;97.20;;;;;;5091661;28;20086;-67
2021/06/08 03:26:26;;;;;;;31.05;22.38;;;16.80;97.20;;;;;;5092436;28;20099;-67
2021/06/08 03:28:55;;;;;;;33.20;22.63;;;16.80;97.20;;;;;;5093271;28;20109;-66
2021/06/08 03:31:21;;;;;;;38.50;24.58;;;16.80;97.20;;;;;;5092099;28;20043;-67
2021/06/08 03:33:48;;;;;;;35.67;23.20;;;16.80;97.20;;;;;;5093037;28;20031;-67
2021/06/08 03:36:15;;;;;;;37.08;23.98;;;16.80;97.20;;;;;;5089899;28;20032;-67
2021/06/08 03:38:42;;;;;;;30.27;21.92;;;16.70;97.10;;;;;;5093131;28;20024;-68
2021/06/08 03:41:09;;;;;;;35.33;23.63;;;16.70;97.10;;;;;;5091743;28;20024;-67
2021/06/08 03:43:36;;;;;;;34.22;23.55;;;16.70;97.10;;;;;;5091289;28;20039;-67
2021/06/08 03:46:02;;;;;;;36.53;22.83;;;16.70;97.20;;;;;;5103451;28;20435;-67
2021/06/08 03:48:29;;;;;;;35.25;23.85;;;16.70;97.20;;;;;;5091858;28;20028;-67
2021/06/08 03:50:55;;;;;;;33.05;23.85;;;16.70;97.20;;;;;;5092583;28;20758;-67
2021/06/08 03:53:21;;;;;;;33.90;24.02;;;16.70;97.20;;;;;;5093068;28;20073;-67
2021/06/08 03:58:18;;;;;;;38.30;24.75;;;16.70;97.20;;;;;;5070527;28;20048;-69
2021/06/08 04:00:46;;;;;;;37.63;25.40;;;16.70;97.20;;;;;;5067308;28;20016;-69
2021/06/08 04:03:13;;;;;;;35.65;24.92;;;16.70;97.20;;;;;;5064409;28;20375;-69
2021/06/08 04:05:39;;;;;;;32.67;23.23;;;16.70;97.20;;;;;;5070466;28;20021;-69
2021/06/08 04:08:08;;;;;;;35.25;24.55;;;16.70;97.20;;;;;;5072401;28;20035;-69
2021/06/08 04:10:34;;;;;;;36.47;26.17;;;16.70;97.30;;;;;;5062738;28;20028;-69
2021/06/08 04:13:02;;;;;;;34.72;23.85;;;16.70;97.20;;;;;;5070782;28;20032;-69
2021/06/08 04:15:28;;;;;;;35.95;25.05;;;16.70;97.20;;;;;;5068759;28;20456;-69
2021/06/08 04:17:54;;;;;;;35.72;25.15;;;16.70;97.30;;;;;;5070648;28;20075;-70
2021/06/08 04:20:20;;;;;;;35.22;24.52;;;16.70;97.30;;;;;;5072252;28;20024;-69
2021/06/08 04:22:47;;;;;;;41.28;26.67;;;16.70;97.30;;;;;;5070012;28;20052;-69
2021/06/08 04:25:14;;;;;;;35.63;24.95;;;16.80;97.30;;;;;;5070277;28;20021;-69
2021/06/08 04:27:40;;;;;;;38.38;25.02;;;16.80;97.30;;;;;;5070249;28;20036;-71
2021/06/08 04:30:08;;;;;;;38.88;25.83;;;16.70;97.30;;;;;;5071467;28;20035;-70
2021/06/08 04:32:35;;;;;;;38.03;26.05;;;16.80;97.40;;;;;;5066778;28;20024;-69
2021/06/08 04:35:01;;;;;;;39.17;26.45;;;16.80;97.40;;;;;;5062952;28;20040;-69
2021/06/08 04:37:27;;;;;;;37.25;26.08;;;16.80;97.40;;;;;;5065744;28;20447;-69
2021/06/08 04:39:53;;;;;;;34.53;25.08;;;16.80;97.40;;;;;;5071340;28;20103;-69
2021/06/08 04:42:19;;;;;;;44.20;27.95;;;16.80;97.40;;;;;;5070426;28;20029;-69
2021/06/08 04:44:49;;;;;;;41.17;27.92;;;16.90;97.40;;;;;;5070016;28;20024;-69
2021/06/08 04:47:22;;;;;;;36.92;25.38;;;16.90;97.50;;;;;;5070639;28;20029;-69
2021/06/08 04:49:49;;;;;;;36.63;25.17;;;16.90;97.50;;;;;;5071187;28;20480;-69
2021/06/08 04:52:16;;;;;;;38.22;26.33;;;16.90;97.50;;;;;;5069729;28;20033;-69
2021/06/08 04:54:42;;;;;;;37.95;24.73;;;16.90;97.50;;;;;;5067353;28;20050;-71
2021/06/08 04:57:11;;;;;;;41.63;26.20;;;16.90;97.50;;;;;;5070002;28;20024;-71
2021/06/08 05:00:10;;;;;;;41.72;26.67;;;16.90;97.50;;;;;;5048031;28;20476;-71
2021/06/08 05:02:38;;;;;;;40.75;26.20;;;17.00;97.60;;;;;;5066005;28;20017;-70
2021/06/08 05:05:18;;;;;;;42.65;28.02;;;17.00;97.80;;;;;;5069923;28;20159;-70
2021/06/08 05:07:53;;;;;;;41.38;26.90;;;17.00;97.60;;;;;;5069579;28;20046;-70
2021/06/08 05:10:22;;;;;;;38.20;26.20;;;17.10;97.60;;;;;;5079537;28;20024;-70
2021/06/08 05:12:49;;;;;;;41.17;27.10;;;17.10;97.70;;;;;;5084188;28;20021;-69
2021/06/08 05:15:18;;;;;;;45.75;27.95;;;17.10;97.70;;;;;;5069781;28;20425;-70
2021/06/08 05:17:44;;;;;;;42.58;27.77;;;17.10;97.60;;;;;;5066073;28;20032;-71
2021/06/08 05:20:10;;;;;;;47.25;28.70;;;17.10;97.60;;;;;;5070611;28;20032;-71
2021/06/08 05:22:37;;;;;;;45.65;27.42;;;17.20;97.70;;;;;;5070653;28;20021;-71
2021/06/08 05:25:03;;;;;;;42.67;27.63;;;17.20;97.90;;;;;;5067905;28;20024;-71
2021/06/08 05:27:29;;;;;;;42.20;27.42;;;17.20;97.60;;;;;;5070001;28;20025;-71
2021/06/08 05:29:56;;;;;;;39.45;27.38;;;17.20;97.60;;;;;;5070383;28;20036;-71
2021/06/08 05:32:23;;;;;;;41.20;27.20;;;17.20;97.70;;;;;;5071050;28;20035;-71
2021/06/08 05:34:49;;;;;;;41.00;27.73;;;17.20;97.70;;;;;;5070432;28;20069;-71
2021/06/08 05:37:16;;;;;;;45.15;27.45;;;17.20;97.70;;;;;;5071168;28;20055;-71
2021/06/08 05:39:42;;;;;;;42.83;28.85;;;17.30;97.70;;;;;;5071580;28;20020;-71
2021/06/08 05:42:16;;;;;;;42.53;27.60;;;17.30;97.70;;;;;;5069659;28;20074;-71
2021/06/08 05:44:42;;;;;;;43.65;27.60;;;17.40;97.70;;;;;;5069804;28;20500;-72
2021/06/08 05:47:08;;;;;;;40.53;27.65;;;17.40;97.70;;;;;;5070855;28;20115;-72
2021/06/08 05:49:37;;;;;;;44.20;27.83;;;17.40;97.70;;;;;;5071386;28;20507;-71
2021/06/08 05:52:09;;;;;;;41.95;27.73;;;17.40;97.70;;;;;;5069907;28;20380;-72
2021/06/08 05:54:35;;;;;;;45.08;28.80;;;17.40;97.70;;;;;;5068834;28;20032;-71
2021/06/08 05:57:02;;;;;;;41.30;26.90;;;17.50;97.70;;;;;;5068612;28;20131;-71
2021/06/08 05:59:28;;;;;;;47.58;29.17;;;17.50;97.80;;;;;;5070464;28;20082;-71
2021/06/08 06:01:54;;;;;;;43.28;26.42;;;17.50;97.70;;;;;;5071098;28;20528;-71
2021/06/08 06:04:23;;;;;;;44.33;29.33;;;17.50;97.70;;;;;;5070195;28;20032;-71
2021/06/08 06:06:49;;;;;;;41.97;27.85;;;17.50;97.70;;;;;;5069233;28;20040;-72
2021/06/08 06:09:21;;;;;;;43.55;28.33;;;17.60;97.80;;;;;;5070913;28;20025;-71
2021/06/08 06:11:48;;;;;;;43.80;27.83;;;17.60;97.80;;;;;;5070390;28;20107;-71
2021/06/08 06:14:15;;;;;;;44.47;29.00;;;17.60;97.80;;;;;;5068459;28;20074;-72
2021/06/08 06:16:45;;;;;;;46.28;28.30;;;17.60;97.80;;;;;;5070367;28;20021;-72
2021/06/08 06:19:11;;;;;;;39.40;27.08;;;17.70;97.80;;;;;;5071026;28;20480;-72
2021/06/08 06:21:38;;;;;;;44.80;29.52;;;17.70;97.80;;;;;;5070790;28;20028;-72
2021/06/08 06:24:05;;;;;;;45.38;29.05;;;17.80;97.80;;;;;;5068379;28;20309;-72
2021/06/08 06:26:33;;;;;;;41.35;27.98;;;17.80;97.80;;;;;;5069937;28;20025;-72
2021/06/08 06:28:59;;;;;;;40.83;29.25;;;17.80;97.70;;;;;;5070045;28;20530;-72
2021/06/08 06:31:26;;;;;;;45.83;30.48;;;17.80;97.80;;;;;;5070073;28;20020;-72
2021/06/08 06:33:56;;;;;;;45.15;30.08;;;17.80;97.70;;;;;;5069957;28;20024;-72
2021/06/08 06:36:26;;;;;;;47.80;30.73;;;17.90;97.70;;;;;;5069299;28;20103;-71
2021/06/08 06:38:54;;;;;;;42.92;31.15;;;17.90;97.70;;;;;;5070742;28;20090;-72
2021/06/08 06:41:21;;;;;;;44.08;29.60;;;17.90;97.70;;;;;;5070207;28;20035;-72
2021/06/08 06:43:50;;;;;;;40.45;29.85;;;17.90;97.60;;;;;;5070583;28;20476;-71
2021/06/08 06:46:16;;;;;;;40.97;28.98;;;17.90;97.60;;;;;;5070146;28;20523;-72
2021/06/08 06:48:44;;;;;;;42.95;29.27;;;18.00;97.70;;;;;;5069562;28;20024;-71
2021/06/08 06:51:11;;;;;;;49.95;29.85;;;18.00;97.70;;;;;;5070631;28;20496;-71
2021/06/08 06:53:37;;;;;;;43.53;30.00;;;18.00;97.70;;;;;;5070482;28;20038;-72
2021/06/08 06:56:03;;;;;;;46.13;30.98;;;18.10;97.70;;;;;;5068973;28;20036;-71
2021/06/08 06:58:32;;;;;;;48.42;29.45;;;18.10;97.60;;;;;;5068690;28;20029;-71
2021/06/08 07:00:57;;;;;;;42.40;29.20;;;18.10;97.60;;;;;;5069943;28;20085;-71
2021/06/08 07:03:32;;;;;;;44.92;30.20;;;18.20;97.60;;;;;;5070120;28;20100;-72
2021/06/08 07:05:59;;;;;;;42.85;30.70;;;18.20;97.60;;;;;;5070024;28;20074;-72
2021/06/08 07:08:26;;;;;;;43.08;29.70;;;18.20;97.60;;;;;;5070434;28;20031;-71
2021/06/08 07:10:53;;;;;;;47.10;32.05;;;18.20;97.60;;;;;;5069907;28;20025;-72
2021/06/08 07:13:19;;;;;;;44.08;29.50;;;18.30;97.60;;;;;;5069057;28;20074;-71
2021/06/08 07:15:46;;;;;;;41.13;29.40;;;18.30;97.50;;;;;;5068626;28;20031;-72
2021/06/08 07:18:12;;;;;;;47.50;30.25;;;18.30;97.40;;;;;;5069982;28;20016;-71
2021/06/08 07:20:38;;;;;;;43.00;30.02;;;18.30;97.40;;;;;;5070289;28;20027;-71
2021/06/08 07:23:05;;;;;;;41.50;28.60;;;18.40;97.50;;;;;;5070433;28;20036;-71
2021/06/08 07:25:35;;;;;;;43.50;28.98;;;18.40;97.50;;;;;;5068471;28;20056;-71
2021/06/08 07:28:02;;;;;;;41.97;29.52;;;18.40;97.50;;;;;;5068153;28;20506;-72
2021/06/08 07:30:28;;;;;;;49.22;31.77;;;18.50;97.40;;;;;;5070603;28;20392;-70
2021/06/08 07:33:08;;;;;;;43.05;30.63;;;18.50;97.40;;;;;;5070453;28;20034;-73
2021/06/08 07:35:45;;;;;;;40.08;29.85;;;18.60;97.40;;;;;;5069722;28;20035;-72
2021/06/08 07:38:19;;;;;;;41.90;29.92;;;18.60;97.40;;;;;;5070227;28;20032;-72
2021/06/08 07:40:59;;;;;;;40.05;29.48;;;18.60;97.30;;;;;;5070599;28;20012;-71
2021/06/08 07:43:33;;;;;;;40.70;28.92;;;18.70;97.30;;;;;;5053496;28;20453;-72
2021/06/08 07:46:07;;;;;;;45.20;28.77;;;18.70;97.30;;;;;;5060700;28;20032;-71
2021/06/08 07:48:34;;;;;;;36.83;29.10;;;18.70;97.30;;;;;;5074440;28;20664;-72
2021/06/08 07:51:03;;;;;;;42.38;30.10;;;18.80;97.30;;;;;;5072655;28;20037;-72
2021/06/08 07:53:31;;;;;;;39.38;29.35;;;18.90;97.20;;;;;;5073957;28;20116;-71
2021/06/08 07:55:58;;;;;;;37.90;28.42;;;18.90;97.10;;;;;;5072190;28;20102;-70
2021/06/08 07:58:25;;;;;;;67.90;49.38;;;19.00;97.10;;;;;;5058990;28;20032;-72
2021/06/08 08:00:53;;;;;;;38.63;29.02;;;19.00;97.10;;;;;;5061785;28;20047;-69
2021/06/08 08:03:29;;;;;;;38.53;28.33;;;19.10;97.10;;;;;;5073512;28;20017;-71
2021/06/08 08:05:59;;;;;;;40.63;30.15;;;19.10;97.00;;;;;;5072279;28;20064;-69
2021/06/08 08:08:25;;;;;;;39.60;29.20;;;19.20;97.00;;;;;;5054002;28;20476;-72
2021/06/08 08:10:52;;;;;;;39.22;29.35;;;19.20;96.90;;;;;;5068575;28;20089;-72
2021/06/08 08:13:24;;;;;;;35.40;27.75;;;19.30;97.10;;;;;;5073863;28;20024;-71
2021/06/08 08:15:51;;;;;;;83.13;65.60;;;19.30;96.80;;;;;;5071165;28;20472;-72
2021/06/08 08:18:18;;;;;;;42.05;30.30;;;19.40;96.90;;;;;;5073517;28;20070;-72
2021/06/08 08:20:53;;;;;;;35.88;27.48;;;19.40;96.80;;;;;;5059864;28;20021;-72
2021/06/08 08:23:28;;;;;;;38.10;28.85;;;19.50;96.70;;;;;;5053648;28;20021;-72
2021/06/08 08:25:55;;;;;;;34.78;26.85;;;19.60;96.70;;;;;;5067172;28;20741;-72
2021/06/08 08:28:21;;;;;;;34.20;27.08;;;19.70;96.70;;;;;;5071257;28;20158;-72
2021/06/08 08:30:47;;;;;;;36.08;26.50;;;19.70;96.70;;;;;;5071336;28;20470;-73
2021/06/08 08:33:13;;;;;;;35.42;26.15;;;19.80;96.50;;;;;;5073790;28;20489;-72
2021/06/08 08:35:39;;;;;;;38.28;27.02;;;19.90;96.50;;;;;;5067833;28;20029;-73
2021/06/08 08:38:06;;;;;;;36.35;26.52;;;19.90;96.50;;;;;;5070992;28;20107;-72
2021/06/08 08:40:33;;;;;;;34.13;26.45;;;20.00;96.40;;;;;;5072270;28;20638;-72
2021/06/08 08:43:03;;;;;;;31.88;24.92;;;20.20;96.40;;;;;;5072684;28;20395;-73
2021/06/08 08:45:30;;;;;;;32.22;23.88;;;20.30;96.00;;;;;;5070292;28;20062;-72
2021/06/08 08:47:56;;;;;;;31.10;24.70;;;20.40;95.80;;;;;;5071089;28;20027;-73
2021/06/08 08:50:22;;;;;;;31.45;24.10;;;20.50;95.70;;;;;;5071851;28;20052;-71
2021/06/08 08:52:55;;;;;;;33.78;25.08;;;20.50;95.70;;;;;;5069432;28;20082;-70
2021/06/08 08:55:25;;;;;;;32.13;24.55;;;20.60;95.70;;;;;;5062249;28;20564;-70
2021/06/08 08:57:52;;;;;;;47.72;27.58;;;20.60;95.70;;;;;;5072743;28;20041;-70
2021/06/08 09:00:21;;;;;;;45.70;28.15;;;20.60;95.70;;;;;;5072273;28;20025;-71
2021/06/08 09:02:48;;;;;;;30.30;23.75;;;20.70;95.60;;;;;;5070835;28;20031;-72
2021/06/08 09:05:13;;;;;;;27.80;23.33;;;21.10;95.40;;;;;;5070542;28;20070;-70
2021/06/08 09:07:39;;;;;;;64.35;46.70;;;21.50;95.20;;;;;;5070733;28;20029;-73
2021/06/08 09:10:09;;;;;;;26.30;22.08;;;21.60;95.20;;;;;;5073150;28;20028;-71
2021/06/08 09:12:35;;;;;;;26.77;20.85;;;21.90;94.90;;;;;;5072249;28;20469;-70
2021/06/08 09:15:03;;;;;;;27.05;21.63;;;22.40;94.20;;;;;;5070768;28;20474;-73
2021/06/08 09:17:29;;;;;;;32.17;23.38;;;22.40;94.10;;;;;;5071211;28;20031;-70
2021/06/08 09:19:55;;;;;;;28.95;20.90;;;22.60;94.10;;;;;;5071900;28;20158;-71
2021/06/08 09:22:20;;;;;;;25.42;20.00;;;23.00;93.80;;;;;;5054024;28;20099;-71
2021/06/08 09:24:54;;;;;;;26.35;19.92;;;24.00;92.80;;;;;;5070626;28;20097;-72
2021/06/08 09:27:27;;;;;;;23.13;19.13;;;24.70;92.10;;;;;;5062878;28;20028;-70
2021/06/08 09:29:53;;;;;;;22.13;17.77;;;24.70;91.50;;;;;;5071446;28;20048;-72
2021/06/08 09:32:23;;;;;;;21.95;17.90;;;25.20;91.50;;;;;;5070957;28;20109;-72
2021/06/08 09:34:50;;;;;;;22.00;18.17;;;25.60;90.80;;;;;;5068958;28;20442;-71
2021/06/08 09:37:28;;;;;;;23.40;18.30;;;25.50;90.80;;;;;;5068668;28;20111;-71
2021/06/08 09:39:53;;;;;;;22.92;18.02;;;25.60;90.40;;;;;;5071306;28;20046;-71
2021/06/08 09:42:23;;;;;;;22.08;18.90;;;25.70;90.40;;;;;;5071100;28;20111;-71
2021/06/08 09:44:49;;;;;;;19.70;17.48;;;26.00;90.10;;;;;;5070120;28;20040;-71
2021/06/08 09:47:28;;;;;;;23.63;19.02;;;25.80;90.40;;;;;;5070813;28;20091;-70
2021/06/08 09:49:54;;;;;;;24.15;18.63;;;25.50;90.00;;;;;;5071566;28;20493;-74
2021/06/08 09:52:21;;;;;;;23.75;20.10;;;25.40;90.40;;;;;;5071039;28;20047;-71
2021/06/08 09:54:51;;;;;;;23.73;19.98;;;25.10;90.40;;;;;;5070069;28;20433;-72
2021/06/08 09:57:26;;;;;;;24.75;20.33;;;24.90;90.10;;;;;;5079648;22;20059;-68
2021/06/08 09:59:55;;;;;;;24.67;20.08;;;24.60;89.30;;;;;;5062374;28;20415;-67
2021/06/08 10:02:32;;;;;;;25.20;19.55;;;24.40;90.40;;;;;;5050601;28;20468;-69
2021/06/08 10:05:19;;;;;;;28.42;21.02;;;24.10;90.40;;;;;;5051296;28;20024;-68
2021/06/08 10:07:50;;;;;;;25.25;20.95;;;23.90;90.60;;;;;;5050627;28;20473;-68
2021/06/08 10:10:22;;;;;;;26.35;21.30;;;23.60;90.80;;;;;;5061036;28;20028;-68
2021/06/08 10:12:58;;;;;;;25.73;20.83;;;23.40;91.00;;;;;;5070411;28;20028;-68
2021/06/08 10:15:26;;;;;;;26.25;21.05;;;23.30;90.90;;;;;;5066293;28;20162;-68
2021/06/08 10:18:09;;;;;;;28.50;20.45;;;23.20;90.90;;;;;;5050204;28;20036;-69
2021/06/08 10:20:39;;;;;;;24.45;19.10;;;23.20;90.90;;;;;;5063300;28;20024;-68
2021/06/08 10:23:32;;;;;;;23.05;18.15;;;23.60;91.30;;;;;;5059918;28;20044;-68
2021/06/08 10:25:59;;;;;;;22.15;17.85;;;24.10;91.40;;;;;;5047079;28;20044;-69
2021/06/08 10:28:26;;;;;;;21.13;15.77;;;24.60;91.50;;;;;;5069603;28;20110;-68
2021/06/08 10:30:53;;;;;;;20.25;16.48;;;25.00;91.20;;;;;;5068419;28;20365;-68
2021/06/08 10:33:21;;;;;;;18.05;16.15;;;25.40;91.00;;;;;;5070480;28;20494;-68
2021/06/08 10:35:48;;;;;;;15.82;13.95;;;25.70;90.20;;;;;;5068519;28;20031;-68
2021/06/08 10:38:14;;;;;;;18.02;14.90;;;25.90;89.70;;;;;;5068580;28;20111;-68
2021/06/08 10:40:43;;;;;;;16.05;14.35;;;26.10;88.70;;;;;;5070173;28;20433;-68
2021/06/08 10:43:36;;;;;;;17.00;13.98;;;26.20;87.60;;;;;;5069807;28;20031;-68
2021/06/08 10:46:01;;;;;;;17.27;14.77;;;26.30;86.50;;;;;;5065168;28;20032;-68
2021/06/08 10:48:37;;;;;;;18.05;14.32;;;26.40;86.40;;;;;;5052277;28;20587;-67
2021/06/08 10:51:14;;;;;;;20.63;16.23;;;26.50;86.10;;;;;;5057773;28;20111;-67
2021/06/08 10:53:57;;;;;;;19.05;15.27;;;26.50;84.80;;;;;;5052324;28;20115;-68
2021/06/08 10:56:30;;;;;;;16.00;14.25;;;26.50;84.20;;;;;;5070182;28;20044;-68
2021/06/08 10:59:02;;;;;;;18.30;15.38;;;26.50;84.40;;;;;;5063360;28;20043;-68
2021/06/08 11:01:31;;;;;;;17.00;15.20;;;26.40;84.60;;;;;;5051986;28;20357;-68
2021/06/08 11:03:59;;;;;;;18.40;15.20;;;26.30;84.00;;;;;;5050002;28;20029;-69
2021/06/08 11:06:37;;;;;;;28.75;23.30;;;26.20;84.10;;;;;;5069783;28;20069;-68
2021/06/08 11:09:05;;;;;;;18.50;15.30;;;26.20;82.90;;;;;;5070160;28;20028;-68
2021/06/08 11:11:48;;;;;;;19.15;16.50;;;26.10;83.70;;;;;;5051918;28;20031;-68
2021/06/08 11:14:31;;;;;;;18.40;16.40;;;26.10;82.00;;;;;;5068123;28;20082;-68
2021/06/08 11:16:59;;;;;;;17.83;14.35;;;26.00;82.00;;;;;;5071307;28;20048;-68
2021/06/08 11:19:49;;;;;;;18.92;14.73;;;26.00;82.80;;;;;;5067455;28;20017;-68
2021/06/08 11:22:20;;;;;;;18.50;14.30;;;25.90;81.10;;;;;;5054419;28;20029;-68
2021/06/08 11:24:50;;;;;;;17.87;15.23;;;25.70;81.70;;;;;;5052847;28;20027;-68
2021/06/08 11:27:18;;;;;;;18.83;15.45;;;25.70;82.40;;;;;;5069722;28;20461;-68
2021/06/08 11:29:55;;;;;;;19.67;15.25;;;25.70;81.80;;;;;;5081541;28;20534;-68
2021/06/08 11:32:30;;;;;;;18.80;14.05;;;25.70;81.70;;;;;;5077671;28;20669;-68
2021/06/08 11:35:19;;;;;;;14.95;13.35;;;25.60;80.30;;;;;;5072510;28;20039;-68
2021/06/08 11:37:48;;;;;;;16.13;14.50;;;25.60;81.20;;;;;;5064889;28;20048;-68
2021/06/08 11:40:32;;;;;;;17.65;14.93;;;25.70;81.40;;;;;;5055638;28;20078;-68
2021/06/08 11:42:58;;;;;;;24.10;15.75;;;25.80;81.40;;;;;;5073388;28;20024;-68
2021/06/08 11:45:38;;;;;;;18.30;14.75;;;25.80;81.20;;;;;;5051321;28;20027;-68
2021/06/08 11:48:04;;;;;;;16.13;14.43;;;25.70;79.90;;;;;;5073089;28;20483;-69
2021/06/08 11:50:44;;;;;;;16.15;13.93;;;25.70;80.40;;;;;;5073392;28;20454;-69
2021/06/08 11:53:12;;;;;;;18.45;15.45;;;25.80;79.50;;;;;;5073051;28;20040;-68
2021/06/08 11:55:38;;;;;;;19.58;12.88;;;25.90;79.00;;;;;;5071907;28;20071;-68
2021/06/08 11:58:04;;;;;;;16.25;13.25;;;25.80;79.70;;;;;;5072702;28;20036;-67
2021/06/08 12:00:52;;;;;;;17.13;13.45;;;25.80;79.30;;;;;;5073661;28;20033;-68
2021/06/08 12:03:32;;;;;;;20.02;14.40;;;25.80;78.00;;;;;;5073317;28;20024;-68
2021/06/08 12:05:59;;;;;;;19.60;14.18;;;25.70;78.00;;;;;;5072073;28;20066;-69
2021/06/08 12:08:27;;;;;;;19.08;13.80;;;25.60;78.10;;;;;;5072481;28;20020;-68
2021/06/08 12:10:53;;;;;;;13.90;12.40;;;25.60;78.40;;;;;;5073113;28;20070;-68
2021/06/08 12:13:30;;;;;;;18.70;12.57;;;25.70;78.30;;;;;;5070866;28;20615;-68
2021/06/08 12:15:56;;;;;;;18.60;13.45;;;25.80;77.70;;;;;;5071635;28;20039;-68
2021/06/08 12:18:32;;;;;;;17.42;13.52;;;25.80;77.80;;;;;;5072732;28;20028;-68
2021/06/08 12:20:59;;;;;;;16.70;13.45;;;25.70;76.80;;;;;;5072549;28;20032;-68
2021/06/08 12:23:31;;;;;;;18.00;14.30;;;25.80;77.30;;;;;;5072731;28;20042;-68
2021/06/08 12:26:06;;;;;;;;;;;25.80;76.80;;;;;;5071797;28;20032;-67
2021/06/08 12:28:32;;;;;;;18.77;13.32;;;25.90;78.90;;;;;;5071291;28;20282;-68
2021/06/08 12:31:19;;;;;;;16.20;13.00;;;25.90;78.10;;;;;;5085238;28;20032;-68
2021/06/08 12:33:46;;;;;;;14.93;13.30;;;26.00;76.80;;;;;;5052780;28;20083;-67
2021/06/08 12:36:11;;;;;;;14.70;12.07;;;25.90;76.40;;;;;;5051044;28;20021;-69
2021/06/08 12:38:48;;;;;;;19.10;13.07;;;26.00;76.50;;;;;;5057352;28;20032;-69
2021/06/08 12:41:15;;;;;;;13.95;12.52;;;26.00;75.90;;;;;;5050288;28;20075;-68
2021/06/08 12:43:50;;;;;;;21.05;16.55;;;26.10;76.20;;;;;;5072228;28;20028;-68